sensor_id;sensor_type;location;lat;lon;timestamp;P1;durP1;ratioP1;P2;durP2;ratioP2
50821;SDS011;36794;51.212;6.980;2023-04-25T00:01:17;19.77;;;4.73;;
50821;SDS011;36794;51.212;6.980;2023-04-25T00:03:44;17.70;;;4.03;;
50821;SDS011;36794;51.212;6.980;2023-04-25T00:06:11;18.30;;;4.50;;
50821;SDS011;36794;51.212;6.980;2023-04-25T00:08:37;15.73;;;4.57;;
50821;SDS011;36794;51.212;6.980;2023-04-25T00:11:03;16.60;;;4.53;;
50821;SDS011;36794;51.212;6.980;2023-04-25T00:13:29;14.40;;;3.53;;
50821;SDS011;36794;51.212;6.980;2023-04-25T00:15:54;16.50;;;3.77;;
50821;SDS011;36794;51.212;6.980;2023-04-25T00:18:25;15.23;;;3.83;;
50821;SDS011;36794;51.212;6.980;2023-04-25T00:20:53;14.50;;;4.03;;
50821;SDS011;36794;51.212;6.980;2023-04-25T00:23:19;16.30;;;4.07;;
50821;SDS011;36794;51.212;6.980;2023-04-25T00:25:46;20.23;;;4.23;;
50821;SDS011;36794;51.212;6.980;2023-04-25T00:28:12;13.97;;;4.00;;
50821;SDS011;36794;51.212;6.980;2023-04-25T00:30:39;15.43;;;4.73;;
50821;SDS011;36794;51.212;6.980;2023-04-25T00:33:05;18.00;;;4.07;;
50821;SDS011;36794;51.212;6.980;2023-04-25T00:35:31;15.30;;;4.30;;
50821;SDS011;36794;51.212;6.980;2023-04-25T00:37:57;18.00;;;4.43;;
50821;SDS011;36794;51.212;6.980;2023-04-25T00:40:23;21.90;;;4.90;;
50821;SDS011;36794;51.212;6.980;2023-04-25T00:42:50;22.60;;;5.23;;
50821;SDS011;36794;51.212;6.980;2023-04-25T00:45:17;18.40;;;4.63;;
50821;SDS011;36794;51.212;6.980;2023-04-25T00:47:43;22.23;;;4.50;;
50821;SDS011;36794;51.212;6.980;2023-04-25T00:50:10;14.93;;;4.80;;
50821;SDS011;36794;51.212;6.980;2023-04-25T00:52:40;16.20;;;3.90;;
50821;SDS011;36794;51.212;6.980;2023-04-25T00:55:07;19.03;;;4.50;;
50821;SDS011;36794;51.212;6.980;2023-04-25T00:57:33;19.20;;;4.50;;
50821;SDS011;36794;51.212;6.980;2023-04-25T00:59:59;24.30;;;4.30;;
50821;SDS011;36794;51.212;6.980;2023-04-25T01:02:25;16.57;;;4.70;;
50821;SDS011;36794;51.212;6.980;2023-04-25T01:04:52;16.37;;;4.97;;
50821;SDS011;36794;51.212;6.980;2023-04-25T01:07:18;15.60;;;4.10;;
50821;SDS011;36794;51.212;6.980;2023-04-25T01:09:45;14.17;;;4.03;;
50821;SDS011;36794;51.212;6.980;2023-04-25T01:12:11;16.00;;;3.93;;
50821;SDS011;36794;51.212;6.980;2023-04-25T01:14:37;16.87;;;4.53;;
50821;SDS011;36794;51.212;6.980;2023-04-25T01:17:03;15.53;;;4.27;;
50821;SDS011;36794;51.212;6.980;2023-04-25T01:19:30;14.63;;;4.40;;
50821;SDS011;36794;51.212;6.980;2023-04-25T01:21:56;12.70;;;4.37;;
50821;SDS011;36794;51.212;6.980;2023-04-25T01:24:22;14.20;;;3.63;;
50821;SDS011;36794;51.212;6.980;2023-04-25T01:26:48;16.90;;;5.13;;
50821;SDS011;36794;51.212;6.980;2023-04-25T01:29:16;16.07;;;3.43;;
50821;SDS011;36794;51.212;6.980;2023-04-25T01:31:43;12.53;;;3.47;;
50821;SDS011;36794;51.212;6.980;2023-04-25T01:34:09;18.20;;;4.40;;
50821;SDS011;36794;51.212;6.980;2023-04-25T01:36:35;15.83;;;3.80;;
50821;SDS011;36794;51.212;6.980;2023-04-25T01:39:01;15.30;;;5.00;;
50821;SDS011;36794;51.212;6.980;2023-04-25T01:41:28;17.27;;;4.43;;
50821;SDS011;36794;51.212;6.980;2023-04-25T01:43:54;14.53;;;3.50;;
50821;SDS011;36794;51.212;6.980;2023-04-25T01:46:20;12.97;;;4.27;;
50821;SDS011;36794;51.212;6.980;2023-04-25T01:48:46;13.97;;;4.07;;
50821;SDS011;36794;51.212;6.980;2023-04-25T01:51:12;13.53;;;4.40;;
50821;SDS011;36794;51.212;6.980;2023-04-25T01:53:38;11.83;;;3.70;;
50821;SDS011;36794;51.212;6.980;2023-04-25T01:56:04;16.13;;;4.07;;
50821;SDS011;36794;51.212;6.980;2023-04-25T01:58:31;10.13;;;3.40;;
50821;SDS011;36794;51.212;6.980;2023-04-25T02:00:56;12.70;;;3.67;;
50821;SDS011;36794;51.212;6.980;2023-04-25T02:03:22;13.40;;;3.93;;
50821;SDS011;36794;51.212;6.980;2023-04-25T02:05:48;12.77;;;4.03;;
50821;SDS011;36794;51.212;6.980;2023-04-25T02:08:16;10.43;;;3.70;;
50821;SDS011;36794;51.212;6.980;2023-04-25T02:10:42;11.87;;;4.67;;
50821;SDS011;36794;51.212;6.980;2023-04-25T02:13:08;10.83;;;4.00;;
50821;SDS011;36794;51.212;6.980;2023-04-25T02:15:34;15.10;;;4.10;;
50821;SDS011;36794;51.212;6.980;2023-04-25T02:18:00;15.97;;;4.80;;
50821;SDS011;36794;51.212;6.980;2023-04-25T02:20:27;16.07;;;4.23;;
50821;SDS011;36794;51.212;6.980;2023-04-25T02:22:53;16.60;;;3.93;;
50821;SDS011;36794;51.212;6.980;2023-04-25T02:25:19;19.33;;;4.97;;
50821;SDS011;36794;51.212;6.980;2023-04-25T02:27:46;16.57;;;5.00;;
50821;SDS011;36794;51.212;6.980;2023-04-25T02:30:12;13.27;;;5.23;;
50821;SDS011;36794;51.212;6.980;2023-04-25T02:32:39;13.10;;;4.30;;
50821;SDS011;36794;51.212;6.980;2023-04-25T02:35:05;21.50;;;4.43;;
50821;SDS011;36794;51.212;6.980;2023-04-25T02:37:32;12.53;;;4.13;;
50821;SDS011;36794;51.212;6.980;2023-04-25T02:39:58;13.30;;;4.43;;
50821;SDS011;36794;51.212;6.980;2023-04-25T02:42:24;16.90;;;5.13;;
50821;SDS011;36794;51.212;6.980;2023-04-25T02:44:50;14.40;;;5.07;;
50821;SDS011;36794;51.212;6.980;2023-04-25T02:47:16;12.73;;;4.47;;
50821;SDS011;36794;51.212;6.980;2023-04-25T02:49:42;14.93;;;4.83;;
50821;SDS011;36794;51.212;6.980;2023-04-25T02:52:08;14.60;;;4.70;;
50821;SDS011;36794;51.212;6.980;2023-04-25T02:54:34;15.00;;;4.60;;
50821;SDS011;36794;51.212;6.980;2023-04-25T02:57:00;16.13;;;4.73;;
50821;SDS011;36794;51.212;6.980;2023-04-25T02:59:27;15.57;;;5.00;;
50821;SDS011;36794;51.212;6.980;2023-04-25T03:01:53;13.77;;;4.50;;
50821;SDS011;36794;51.212;6.980;2023-04-25T03:04:19;9.83;;;4.30;;
50821;SDS011;36794;51.212;6.980;2023-04-25T03:06:45;19.40;;;4.67;;
50821;SDS011;36794;51.212;6.980;2023-04-25T03:09:11;14.03;;;4.97;;
50821;SDS011;36794;51.212;6.980;2023-04-25T03:11:40;10.17;;;3.93;;
50821;SDS011;36794;51.212;6.980;2023-04-25T03:14:06;16.83;;;3.73;;
50821;SDS011;36794;51.212;6.980;2023-04-25T03:16:32;9.37;;;3.77;;
50821;SDS011;36794;51.212;6.980;2023-04-25T03:18:58;13.37;;;3.87;;
50821;SDS011;36794;51.212;6.980;2023-04-25T03:21:25;12.40;;;4.20;;
50821;SDS011;36794;51.212;6.980;2023-04-25T03:23:51;12.90;;;3.93;;
50821;SDS011;36794;51.212;6.980;2023-04-25T03:26:17;14.57;;;3.70;;
50821;SDS011;36794;51.212;6.980;2023-04-25T03:28:43;12.80;;;4.37;;
50821;SDS011;36794;51.212;6.980;2023-04-25T03:31:09;12.07;;;3.23;;
50821;SDS011;36794;51.212;6.980;2023-04-25T03:33:35;12.40;;;3.63;;
50821;SDS011;36794;51.212;6.980;2023-04-25T03:36:01;15.30;;;4.03;;
50821;SDS011;36794;51.212;6.980;2023-04-25T03:38:27;13.23;;;3.67;;
50821;SDS011;36794;51.212;6.980;2023-04-25T03:40:53;12.33;;;4.27;;
50821;SDS011;36794;51.212;6.980;2023-04-25T03:43:21;12.30;;;4.23;;
50821;SDS011;36794;51.212;6.980;2023-04-25T03:45:47;13.03;;;3.83;;
50821;SDS011;36794;51.212;6.980;2023-04-25T03:48:12;16.23;;;5.20;;
50821;SDS011;36794;51.212;6.980;2023-04-25T03:50:38;16.43;;;4.90;;
50821;SDS011;36794;51.212;6.980;2023-04-25T03:53:04;17.17;;;5.33;;
50821;SDS011;36794;51.212;6.980;2023-04-25T03:55:30;18.33;;;5.10;;
50821;SDS011;36794;51.212;6.980;2023-04-25T03:57:57;17.53;;;4.60;;
50821;SDS011;36794;51.212;6.980;2023-04-25T04:00:23;16.30;;;4.53;;
50821;SDS011;36794;51.212;6.980;2023-04-25T04:02:49;15.73;;;4.93;;
50821;SDS011;36794;51.212;6.980;2023-04-25T04:05:15;17.80;;;5.10;;
50821;SDS011;36794;51.212;6.980;2023-04-25T04:07:41;18.23;;;5.47;;
50821;SDS011;36794;51.212;6.980;2023-04-25T04:10:08;20.83;;;5.50;;
50821;SDS011;36794;51.212;6.980;2023-04-25T04:12:34;20.17;;;6.27;;
50821;SDS011;36794;51.212;6.980;2023-04-25T04:15:01;21.33;;;6.03;;
50821;SDS011;36794;51.212;6.980;2023-04-25T04:17:28;24.53;;;5.97;;
50821;SDS011;36794;51.212;6.980;2023-04-25T04:19:53;16.83;;;6.23;;
50821;SDS011;36794;51.212;6.980;2023-04-25T04:22:19;25.57;;;6.90;;
50821;SDS011;36794;51.212;6.980;2023-04-25T04:24:45;18.73;;;6.13;;
50821;SDS011;36794;51.212;6.980;2023-04-25T04:27:13;23.77;;;6.40;;
50821;SDS011;36794;51.212;6.980;2023-04-25T04:29:39;20.47;;;6.93;;
50821;SDS011;36794;51.212;6.980;2023-04-25T04:32:05;20.73;;;6.00;;
50821;SDS011;36794;51.212;6.980;2023-04-25T04:34:33;17.00;;;6.27;;
50821;SDS011;36794;51.212;6.980;2023-04-25T04:36:59;26.10;;;6.37;;
50821;SDS011;36794;51.212;6.980;2023-04-25T04:39:25;22.80;;;6.60;;
50821;SDS011;36794;51.212;6.980;2023-04-25T04:41:51;22.80;;;6.87;;
50821;SDS011;36794;51.212;6.980;2023-04-25T04:44:18;23.93;;;6.63;;
50821;SDS011;36794;51.212;6.980;2023-04-25T04:46:44;24.63;;;6.97;;
50821;SDS011;36794;51.212;6.980;2023-04-25T04:49:11;29.33;;;7.00;;
50821;SDS011;36794;51.212;6.980;2023-04-25T04:51:38;19.47;;;6.20;;
50821;SDS011;36794;51.212;6.980;2023-04-25T04:54:05;23.70;;;6.30;;
50821;SDS011;36794;51.212;6.980;2023-04-25T04:56:31;19.57;;;6.87;;
50821;SDS011;36794;51.212;6.980;2023-04-25T04:58:57;24.33;;;6.60;;
50821;SDS011;36794;51.212;6.980;2023-04-25T05:01:24;25.30;;;7.07;;
50821;SDS011;36794;51.212;6.980;2023-04-25T05:03:50;23.23;;;7.07;;
50821;SDS011;36794;51.212;6.980;2023-04-25T05:06:17;21.67;;;7.47;;
50821;SDS011;36794;51.212;6.980;2023-04-25T05:08:43;23.67;;;6.17;;
50821;SDS011;36794;51.212;6.980;2023-04-25T05:11:09;27.93;;;6.73;;
50821;SDS011;36794;51.212;6.980;2023-04-25T05:13:36;20.03;;;6.70;;
50821;SDS011;36794;51.212;6.980;2023-04-25T05:16:02;28.13;;;7.53;;
50821;SDS011;36794;51.212;6.980;2023-04-25T05:18:28;20.10;;;6.73;;
50821;SDS011;36794;51.212;6.980;2023-04-25T05:20:54;23.20;;;7.00;;
50821;SDS011;36794;51.212;6.980;2023-04-25T05:23:20;33.97;;;7.07;;
50821;SDS011;36794;51.212;6.980;2023-04-25T05:25:46;19.47;;;6.40;;
50821;SDS011;36794;51.212;6.980;2023-04-25T05:28:12;32.53;;;7.67;;
50821;SDS011;36794;51.212;6.980;2023-04-25T05:30:39;36.03;;;7.20;;
50821;SDS011;36794;51.212;6.980;2023-04-25T05:33:05;29.33;;;7.30;;
50821;SDS011;36794;51.212;6.980;2023-04-25T05:35:31;28.10;;;7.23;;
50821;SDS011;36794;51.212;6.980;2023-04-25T05:38:00;24.53;;;6.20;;
50821;SDS011;36794;51.212;6.980;2023-04-25T05:40:27;27.37;;;6.57;;
50821;SDS011;36794;51.212;6.980;2023-04-25T05:42:53;22.00;;;5.83;;
50821;SDS011;36794;51.212;6.980;2023-04-25T05:45:19;33.40;;;5.87;;
50821;SDS011;36794;51.212;6.980;2023-04-25T05:47:45;22.80;;;6.53;;
50821;SDS011;36794;51.212;6.980;2023-04-25T05:50:14;24.37;;;6.13;;
50821;SDS011;36794;51.212;6.980;2023-04-25T05:52:40;29.33;;;7.13;;
50821;SDS011;36794;51.212;6.980;2023-04-25T05:55:06;22.93;;;6.17;;
50821;SDS011;36794;51.212;6.980;2023-04-25T05:57:32;22.07;;;5.10;;
50821;SDS011;36794;51.212;6.980;2023-04-25T05:59:58;24.10;;;5.87;;
50821;SDS011;36794;51.212;6.980;2023-04-25T06:02:24;23.87;;;6.43;;
50821;SDS011;36794;51.212;6.980;2023-04-25T06:04:51;29.83;;;6.37;;
50821;SDS011;36794;51.212;6.980;2023-04-25T06:07:17;25.83;;;6.20;;
50821;SDS011;36794;51.212;6.980;2023-04-25T06:09:43;21.37;;;5.80;;
50821;SDS011;36794;51.212;6.980;2023-04-25T06:12:09;20.03;;;5.57;;
50821;SDS011;36794;51.212;6.980;2023-04-25T06:14:36;29.13;;;5.73;;
50821;SDS011;36794;51.212;6.980;2023-04-25T06:17:02;24.23;;;5.80;;
50821;SDS011;36794;51.212;6.980;2023-04-25T06:19:35;23.53;;;4.93;;
50821;SDS011;36794;51.212;6.980;2023-04-25T06:22:01;28.17;;;5.50;;
50821;SDS011;36794;51.212;6.980;2023-04-25T06:24:28;18.03;;;3.97;;
50821;SDS011;36794;51.212;6.980;2023-04-25T06:26:54;18.03;;;4.13;;
50821;SDS011;36794;51.212;6.980;2023-04-25T06:29:20;19.33;;;4.30;;
50821;SDS011;36794;51.212;6.980;2023-04-25T06:31:46;15.10;;;4.13;;
50821;SDS011;36794;51.212;6.980;2023-04-25T06:34:12;23.13;;;3.67;;
50821;SDS011;36794;51.212;6.980;2023-04-25T06:36:38;22.20;;;4.27;;
50821;SDS011;36794;51.212;6.980;2023-04-25T06:39:04;22.23;;;4.23;;
50821;SDS011;36794;51.212;6.980;2023-04-25T06:41:30;17.20;;;3.37;;
50821;SDS011;36794;51.212;6.980;2023-04-25T06:43:56;18.27;;;3.97;;
50821;SDS011;36794;51.212;6.980;2023-04-25T06:46:22;20.37;;;3.00;;
50821;SDS011;36794;51.212;6.980;2023-04-25T06:48:48;16.97;;;4.00;;
50821;SDS011;36794;51.212;6.980;2023-04-25T06:51:15;21.67;;;4.40;;
50821;SDS011;36794;51.212;6.980;2023-04-25T06:53:41;19.83;;;3.17;;
50821;SDS011;36794;51.212;6.980;2023-04-25T06:56:06;17.77;;;3.67;;
50821;SDS011;36794;51.212;6.980;2023-04-25T06:58:32;16.80;;;3.33;;
50821;SDS011;36794;51.212;6.980;2023-04-25T07:00:58;19.40;;;3.90;;
50821;SDS011;36794;51.212;6.980;2023-04-25T07:03:25;14.47;;;3.37;;
50821;SDS011;36794;51.212;6.980;2023-04-25T07:05:50;13.33;;;3.27;;
50821;SDS011;36794;51.212;6.980;2023-04-25T07:08:16;22.97;;;4.03;;
50821;SDS011;36794;51.212;6.980;2023-04-25T07:10:42;21.47;;;4.17;;
50821;SDS011;36794;51.212;6.980;2023-04-25T07:13:08;19.70;;;4.10;;
50821;SDS011;36794;51.212;6.980;2023-04-25T07:15:34;11.10;;;3.37;;
50821;SDS011;36794;51.212;6.980;2023-04-25T07:18:00;18.07;;;3.90;;
50821;SDS011;36794;51.212;6.980;2023-04-25T07:20:26;16.53;;;3.73;;
50821;SDS011;36794;51.212;6.980;2023-04-25T07:22:52;16.63;;;3.63;;
50821;SDS011;36794;51.212;6.980;2023-04-25T07:25:19;15.37;;;3.07;;
50821;SDS011;36794;51.212;6.980;2023-04-25T07:27:45;18.17;;;3.30;;
50821;SDS011;36794;51.212;6.980;2023-04-25T07:30:11;15.07;;;3.00;;
50821;SDS011;36794;51.212;6.980;2023-04-25T07:32:38;15.97;;;3.33;;
50821;SDS011;36794;51.212;6.980;2023-04-25T07:35:04;14.93;;;3.10;;
50821;SDS011;36794;51.212;6.980;2023-04-25T07:37:31;25.47;;;3.57;;
50821;SDS011;36794;51.212;6.980;2023-04-25T07:39:57;18.47;;;3.73;;
50821;SDS011;36794;51.212;6.980;2023-04-25T07:42:23;19.50;;;4.03;;
50821;SDS011;36794;51.212;6.980;2023-04-25T07:44:49;20.10;;;3.53;;
50821;SDS011;36794;51.212;6.980;2023-04-25T07:47:16;13.67;;;3.27;;
50821;SDS011;36794;51.212;6.980;2023-04-25T07:49:44;15.13;;;3.40;;
50821;SDS011;36794;51.212;6.980;2023-04-25T07:52:10;12.73;;;3.00;;
50821;SDS011;36794;51.212;6.980;2023-04-25T07:54:36;16.43;;;3.83;;
50821;SDS011;36794;51.212;6.980;2023-04-25T07:57:02;16.93;;;4.43;;
50821;SDS011;36794;51.212;6.980;2023-04-25T07:59:28;12.20;;;3.40;;
50821;SDS011;36794;51.212;6.980;2023-04-25T08:01:54;17.73;;;3.30;;
50821;SDS011;36794;51.212;6.980;2023-04-25T08:04:22;14.20;;;4.23;;
50821;SDS011;36794;51.212;6.980;2023-04-25T08:06:48;15.57;;;2.80;;
50821;SDS011;36794;51.212;6.980;2023-04-25T08:09:15;17.13;;;4.03;;
50821;SDS011;36794;51.212;6.980;2023-04-25T08:11:41;19.17;;;2.67;;
50821;SDS011;36794;51.212;6.980;2023-04-25T08:14:07;15.53;;;2.40;;
50821;SDS011;36794;51.212;6.980;2023-04-25T08:16:33;22.40;;;2.60;;
50821;SDS011;36794;51.212;6.980;2023-04-25T08:19:00;17.43;;;2.87;;
50821;SDS011;36794;51.212;6.980;2023-04-25T08:21:26;14.63;;;2.90;;
50821;SDS011;36794;51.212;6.980;2023-04-25T08:23:52;15.40;;;2.87;;
50821;SDS011;36794;51.212;6.980;2023-04-25T08:26:18;18.10;;;2.93;;
50821;SDS011;36794;51.212;6.980;2023-04-25T08:28:44;11.83;;;2.50;;
50821;SDS011;36794;51.212;6.980;2023-04-25T08:31:11;10.37;;;1.97;;
50821;SDS011;36794;51.212;6.980;2023-04-25T08:33:37;24.90;;;4.40;;
50821;SDS011;36794;51.212;6.980;2023-04-25T08:36:03;10.50;;;2.40;;
50821;SDS011;36794;51.212;6.980;2023-04-25T08:38:29;15.37;;;3.20;;
50821;SDS011;36794;51.212;6.980;2023-04-25T08:40:56;16.23;;;2.70;;
50821;SDS011;36794;51.212;6.980;2023-04-25T08:43:22;11.77;;;2.17;;
50821;SDS011;36794;51.212;6.980;2023-04-25T08:45:49;12.17;;;2.43;;
50821;SDS011;36794;51.212;6.980;2023-04-25T08:48:16;12.33;;;2.83;;
50821;SDS011;36794;51.212;6.980;2023-04-25T08:50:45;12.90;;;2.60;;
50821;SDS011;36794;51.212;6.980;2023-04-25T08:53:12;13.60;;;2.97;;
50821;SDS011;36794;51.212;6.980;2023-04-25T08:55:43;16.00;;;2.90;;
50821;SDS011;36794;51.212;6.980;2023-04-25T08:58:09;12.10;;;2.97;;
50821;SDS011;36794;51.212;6.980;2023-04-25T09:00:36;17.07;;;3.50;;
50821;SDS011;36794;51.212;6.980;2023-04-25T09:03:02;9.00;;;2.90;;
50821;SDS011;36794;51.212;6.980;2023-04-25T09:05:28;19.00;;;3.47;;
50821;SDS011;36794;51.212;6.980;2023-04-25T09:07:54;12.03;;;2.97;;
50821;SDS011;36794;51.212;6.980;2023-04-25T09:10:21;15.10;;;3.27;;
50821;SDS011;36794;51.212;6.980;2023-04-25T09:13:06;17.47;;;2.90;;
50821;SDS011;36794;51.212;6.980;2023-04-25T09:18:12;16.67;;;3.50;;
50821;SDS011;36794;51.212;6.980;2023-04-25T09:20:42;17.30;;;3.53;;
50821;SDS011;36794;51.212;6.980;2023-04-25T09:23:08;16.70;;;3.20;;
50821;SDS011;36794;51.212;6.980;2023-04-25T09:25:35;15.33;;;3.23;;
50821;SDS011;36794;51.212;6.980;2023-04-25T09:28:04;12.87;;;3.17;;
50821;SDS011;36794;51.212;6.980;2023-04-25T09:30:31;14.93;;;2.90;;
50821;SDS011;36794;51.212;6.980;2023-04-25T09:32:57;13.77;;;2.73;;
50821;SDS011;36794;51.212;6.980;2023-04-25T09:35:24;10.10;;;2.13;;
50821;SDS011;36794;51.212;6.980;2023-04-25T09:37:53;14.33;;;2.30;;
50821;SDS011;36794;51.212;6.980;2023-04-25T09:40:19;8.00;;;2.47;;
50821;SDS011;36794;51.212;6.980;2023-04-25T09:42:45;15.83;;;1.97;;
50821;SDS011;36794;51.212;6.980;2023-04-25T09:45:14;10.37;;;2.10;;
50821;SDS011;36794;51.212;6.980;2023-04-25T09:47:40;9.73;;;1.83;;
50821;SDS011;36794;51.212;6.980;2023-04-25T09:50:15;10.20;;;2.20;;
50821;SDS011;36794;51.212;6.980;2023-04-25T09:52:41;12.03;;;2.13;;
50821;SDS011;36794;51.212;6.980;2023-04-25T09:55:07;11.17;;;2.07;;
50821;SDS011;36794;51.212;6.980;2023-04-25T09:57:33;14.20;;;2.87;;
50821;SDS011;36794;51.212;6.980;2023-04-25T10:00:00;13.00;;;2.30;;
50821;SDS011;36794;51.212;6.980;2023-04-25T10:02:29;9.10;;;2.07;;
50821;SDS011;36794;51.212;6.980;2023-04-25T10:04:55;12.33;;;2.33;;
50821;SDS011;36794;51.212;6.980;2023-04-25T10:07:26;10.67;;;2.13;;
50821;SDS011;36794;51.212;6.980;2023-04-25T10:10:01;8.97;;;2.20;;
50821;SDS011;36794;51.212;6.980;2023-04-25T10:12:28;8.48;;;1.58;;
50821;SDS011;36794;51.212;6.980;2023-04-25T10:14:54;8.57;;;2.47;;
50821;SDS011;36794;51.212;6.980;2023-04-25T10:17:20;10.02;;;2.22;;
50821;SDS011;36794;51.212;6.980;2023-04-25T10:19:47;9.63;;;1.80;;
50821;SDS011;36794;51.212;6.980;2023-04-25T10:24:57;5.47;;;1.10;;
50821;SDS011;36794;51.212;6.980;2023-04-25T10:27:24;6.93;;;1.50;;
50821;SDS011;36794;51.212;6.980;2023-04-25T10:30:02;9.10;;;1.70;;
50821;SDS011;36794;51.212;6.980;2023-04-25T10:32:30;11.52;;;1.70;;
50821;SDS011;36794;51.212;6.980;2023-04-25T10:34:57;8.37;;;1.40;;
50821;SDS011;36794;51.212;6.980;2023-04-25T10:37:24;8.93;;;1.70;;
50821;SDS011;36794;51.212;6.980;2023-04-25T10:39:50;8.97;;;1.60;;
50821;SDS011;36794;51.212;6.980;2023-04-25T10:42:18;6.00;;;1.10;;
50821;SDS011;36794;51.212;6.980;2023-04-25T10:45:00;7.27;;;1.53;;
50821;SDS011;36794;51.212;6.980;2023-04-25T10:47:34;6.57;;;1.40;;
50821;SDS011;36794;51.212;6.980;2023-04-25T10:50:04;5.83;;;1.20;;
50821;SDS011;36794;51.212;6.980;2023-04-25T10:52:30;6.67;;;1.30;;
50821;SDS011;36794;51.212;6.980;2023-04-25T10:54:58;6.87;;;1.30;;
50821;SDS011;36794;51.212;6.980;2023-04-25T11:00:04;7.63;;;1.20;;
50821;SDS011;36794;51.212;6.980;2023-04-25T11:02:31;5.90;;;1.03;;
50821;SDS011;36794;51.212;6.980;2023-04-25T11:04:57;6.87;;;1.10;;
50821;SDS011;36794;51.212;6.980;2023-04-25T11:07:26;6.53;;;1.10;;
50821;SDS011;36794;51.212;6.980;2023-04-25T11:09:55;8.13;;;1.77;;
50821;SDS011;36794;51.212;6.980;2023-04-25T11:12:21;7.77;;;1.30;;
50821;SDS011;36794;51.212;6.980;2023-04-25T11:14:47;7.10;;;1.50;;
50821;SDS011;36794;51.212;6.980;2023-04-25T11:17:13;4.67;;;1.23;;
50821;SDS011;36794;51.212;6.980;2023-04-25T11:19:39;8.07;;;1.37;;
50821;SDS011;36794;51.212;6.980;2023-04-25T11:22:05;6.43;;;1.30;;
50821;SDS011;36794;51.212;6.980;2023-04-25T11:24:33;7.63;;;1.37;;
50821;SDS011;36794;51.212;6.980;2023-04-25T11:27:00;6.00;;;1.47;;
50821;SDS011;36794;51.212;6.980;2023-04-25T11:29:29;9.50;;;1.50;;
50821;SDS011;36794;51.212;6.980;2023-04-25T11:31:55;8.27;;;1.37;;
50821;SDS011;36794;51.212;6.980;2023-04-25T11:34:25;9.13;;;1.30;;
50821;SDS011;36794;51.212;6.980;2023-04-25T11:36:52;7.07;;;1.17;;
50821;SDS011;36794;51.212;6.980;2023-04-25T11:39:19;8.03;;;1.40;;
50821;SDS011;36794;51.212;6.980;2023-04-25T11:41:45;6.65;;;1.20;;
50821;SDS011;36794;51.212;6.980;2023-04-25T11:44:12;5.95;;;1.23;;
50821;SDS011;36794;51.212;6.980;2023-04-25T11:46:40;7.18;;;0.95;;
50821;SDS011;36794;51.212;6.980;2023-04-25T11:49:07;5.15;;;1.33;;
50821;SDS011;36794;51.212;6.980;2023-04-25T11:54:05;5.07;;;1.30;;
50821;SDS011;36794;51.212;6.980;2023-04-25T11:56:32;6.53;;;1.50;;
50821;SDS011;36794;51.212;6.980;2023-04-25T11:59:07;10.13;;;1.50;;
50821;SDS011;36794;51.212;6.980;2023-04-25T12:04:09;7.23;;;1.57;;
50821;SDS011;36794;51.212;6.980;2023-04-25T12:06:39;9.23;;;1.43;;
50821;SDS011;36794;51.212;6.980;2023-04-25T12:09:07;12.77;;;1.50;;
50821;SDS011;36794;51.212;6.980;2023-04-25T12:11:40;8.00;;;1.50;;
50821;SDS011;36794;51.212;6.980;2023-04-25T12:14:07;6.55;;;1.80;;
50821;SDS011;36794;51.212;6.980;2023-04-25T12:16:43;9.87;;;2.10;;
50821;SDS011;36794;51.212;6.980;2023-04-25T12:19:09;4.53;;;1.30;;
50821;SDS011;36794;51.212;6.980;2023-04-25T12:21:36;4.90;;;1.57;;
50821;SDS011;36794;51.212;6.980;2023-04-25T12:24:18;9.73;;;1.63;;
50821;SDS011;36794;51.212;6.980;2023-04-25T12:26:52;8.73;;;1.80;;
50821;SDS011;36794;51.212;6.980;2023-04-25T12:29:22;9.43;;;2.10;;
50821;SDS011;36794;51.212;6.980;2023-04-25T12:31:49;7.00;;;1.17;;
50821;SDS011;36794;51.212;6.980;2023-04-25T12:34:16;9.97;;;1.30;;
50821;SDS011;36794;51.212;6.980;2023-04-25T12:36:42;10.70;;;1.63;;
50821;SDS011;36794;51.212;6.980;2023-04-25T12:39:08;8.57;;;1.63;;
50821;SDS011;36794;51.212;6.980;2023-04-25T12:41:35;9.50;;;1.67;;
50821;SDS011;36794;51.212;6.980;2023-04-25T12:44:01;10.27;;;2.20;;
50821;SDS011;36794;51.212;6.980;2023-04-25T12:46:27;6.70;;;1.53;;
50821;SDS011;36794;51.212;6.980;2023-04-25T12:48:53;10.33;;;2.00;;
50821;SDS011;36794;51.212;6.980;2023-04-25T12:51:20;6.50;;;1.70;;
50821;SDS011;36794;51.212;6.980;2023-04-25T12:53:46;8.60;;;1.83;;
50821;SDS011;36794;51.212;6.980;2023-04-25T12:56:12;8.50;;;2.10;;
50821;SDS011;36794;51.212;6.980;2023-04-25T12:58:38;9.77;;;1.80;;
50821;SDS011;36794;51.212;6.980;2023-04-25T13:01:05;11.50;;;2.00;;
50821;SDS011;36794;51.212;6.980;2023-04-25T13:03:32;7.67;;;1.63;;
50821;SDS011;36794;51.212;6.980;2023-04-25T13:05:59;8.20;;;1.80;;
50821;SDS011;36794;51.212;6.980;2023-04-25T13:08:25;9.13;;;2.30;;
50821;SDS011;36794;51.212;6.980;2023-04-25T13:10:51;5.77;;;1.40;;
50821;SDS011;36794;51.212;6.980;2023-04-25T13:13:17;8.30;;;2.03;;
50821;SDS011;36794;51.212;6.980;2023-04-25T13:15:43;11.60;;;1.93;;
50821;SDS011;36794;51.212;6.980;2023-04-25T13:18:09;8.60;;;1.67;;
50821;SDS011;36794;51.212;6.980;2023-04-25T13:20:35;8.40;;;1.60;;
50821;SDS011;36794;51.212;6.980;2023-04-25T13:23:01;8.53;;;1.90;;
50821;SDS011;36794;51.212;6.980;2023-04-25T13:25:27;7.63;;;1.87;;
50821;SDS011;36794;51.212;6.980;2023-04-25T13:27:53;9.57;;;1.50;;
50821;SDS011;36794;51.212;6.980;2023-04-25T13:30:19;7.23;;;1.63;;
50821;SDS011;36794;51.212;6.980;2023-04-25T13:32:45;6.53;;;1.70;;
50821;SDS011;36794;51.212;6.980;2023-04-25T13:35:12;6.43;;;1.40;;
50821;SDS011;36794;51.212;6.980;2023-04-25T13:37:39;5.97;;;1.50;;
50821;SDS011;36794;51.212;6.980;2023-04-25T13:40:06;10.93;;;2.03;;
50821;SDS011;36794;51.212;6.980;2023-04-25T13:42:34;6.50;;;1.50;;
50821;SDS011;36794;51.212;6.980;2023-04-25T13:45:00;6.50;;;1.60;;
50821;SDS011;36794;51.212;6.980;2023-04-25T13:47:27;5.10;;;1.13;;
50821;SDS011;36794;51.212;6.980;2023-04-25T13:49:53;6.70;;;1.30;;
50821;SDS011;36794;51.212;6.980;2023-04-25T13:52:19;7.83;;;1.40;;
50821;SDS011;36794;51.212;6.980;2023-04-25T13:54:45;7.43;;;1.50;;
50821;SDS011;36794;51.212;6.980;2023-04-25T13:57:11;6.03;;;1.73;;
50821;SDS011;36794;51.212;6.980;2023-04-25T13:59:37;8.67;;;1.37;;
50821;SDS011;36794;51.212;6.980;2023-04-25T14:02:03;4.10;;;1.20;;
50821;SDS011;36794;51.212;6.980;2023-04-25T14:04:29;8.07;;;1.27;;
50821;SDS011;36794;51.212;6.980;2023-04-25T14:06:55;9.00;;;1.97;;
50821;SDS011;36794;51.212;6.980;2023-04-25T14:09:22;10.23;;;1.87;;
50821;SDS011;36794;51.212;6.980;2023-04-25T14:11:51;7.00;;;2.07;;
50821;SDS011;36794;51.212;6.980;2023-04-25T14:14:18;8.07;;;1.90;;
50821;SDS011;36794;51.212;6.980;2023-04-25T14:16:44;6.27;;;1.63;;
50821;SDS011;36794;51.212;6.980;2023-04-25T14:19:10;12.23;;;2.20;;
50821;SDS011;36794;51.212;6.980;2023-04-25T14:21:36;6.50;;;1.73;;
50821;SDS011;36794;51.212;6.980;2023-04-25T14:24:02;10.50;;;1.37;;
50821;SDS011;36794;51.212;6.980;2023-04-25T14:26:29;11.87;;;1.97;;
50821;SDS011;36794;51.212;6.980;2023-04-25T14:28:56;6.13;;;1.23;;
50821;SDS011;36794;51.212;6.980;2023-04-25T14:31:22;7.80;;;1.60;;
50821;SDS011;36794;51.212;6.980;2023-04-25T14:33:48;6.87;;;1.70;;
50821;SDS011;36794;51.212;6.980;2023-04-25T14:36:14;7.53;;;1.83;;
50821;SDS011;36794;51.212;6.980;2023-04-25T14:38:40;9.17;;;1.97;;
50821;SDS011;36794;51.212;6.980;2023-04-25T14:41:05;6.57;;;1.40;;
50821;SDS011;36794;51.212;6.980;2023-04-25T14:43:31;7.43;;;1.33;;
50821;SDS011;36794;51.212;6.980;2023-04-25T14:45:57;8.07;;;2.80;;
50821;SDS011;36794;51.212;6.980;2023-04-25T14:48:24;8.67;;;2.47;;